Kalkaska, MI (49646)

10:14 AM EST on December 29, 2014 (GMT -0500)
Kalkaska | Change Station
CLOSE
Current Station
Personal Weather Station
Location: Kalkaska, MI
Elevation: 1030 ft
Nearby Weather Stations

Elev 1030 ft 44.74 °N, 85.18 °W | Updated 4 minutes ago

Overcast
Overcast
19.2 °F
Feels Like 12 °F
N
5.0
Wind Variable Wind from West
Gusts 13.0 mph

Today
High -- | Low -- °F
--% Chance of Precip.
Yesterday
High -- | Low -- °F
Precip. -- in
8:17 AM 5:07 PM
First Quarter, 59% visible
Pressure 30.30 in
Visibility 1.2 miles
Clouds Scattered Clouds 900 ft
Mostly Cloudy 2600 ft
Overcast 3400 ft
Windchill 12 °F
Dew Point 15 °F
Humidity 85%
Rainfall 0.00 in
Snow Depth Not available.
UV 0 out of 12
Pollen .10 out of 12
Air Quality Not available.
Flu Activity Not available.
METAR KGOV 291455Z AUTO 26006KT 1 1/4SM -SN SCT009 BKN026 OVC034 M07/M10 A3030 RMK AO2 T10751097

More Conditions Fewer Conditions

Pressure 30.30 in
Visibility 1.2 miles
Clouds Scattered Clouds 900 ft
Mostly Cloudy 2600 ft
Overcast 3400 ft
Windchill 12 °F
Dew Point 15 °F
Humidity 85%
Rainfall 0.00 in
Snow Depth Not available.
UV 0 out of 12
Pollen .10 out of 12
Air Quality Not available.
Flu Activity Not available.
METAR KGOV 291455Z AUTO 26006KT 1 1/4SM -SN SCT009 BKN026 OVC034 M07/M10 A3030 RMK AO2 T10751097

More Conditions Fewer Conditions

Nowcast | as of 10:00 am EST on December 29, 2014

At 11 am...numerous snow showers. Temperature 18. Northwest winds 8 mph. At 1 PM...numerous snow showers. Temperature 21. Northwest winds 8 mph. At 3 PM...numerous snow showers. Temperature 23. Northwest winds 8 mph. At 5 PM...numerous snow showers. Temperature 23. Northwest winds 7 mph.

×

10-Day Weather Forecast

Almanac

Astronomy

Dec. 29, 2014 Rise Set
Actual Time
Civil Twilight
Nautical Twilight
Astronomical Twilight
Moon
Length of Visible Light
Length of Day
Tomorrow will be .
, % of the Moon is Illuminated

Today's Extremes

State Highs State Lows

Community

WunderPhotos

Upload Photos

1,781,602 photos uploaded!

WunderBlogs® & News

Nearby

Air Quality

  Air Quality AQ Index Pollutant
Not available.

Snow Depth

Station Depth Elevation

Earthquake Activity

City Distance Mag. Time & Date
Minimum magnitude displayed is 2.5.

Coastal Water Temperatures

Place Temperature

Nearby Weather Stations